Time;durP1;ratioP1;P1;durP2;ratioP2;P2;SDS_P1;SDS_P2;PMS_P1;PMS_P2;Temp;Humidity;BMP_temperature;BMP_pressure;BME280_temperature;BME280_humidity;BME280_pressure;Samples;Min_cycle;Max_cycle;Signal;HPM_P1;HPM_P2
2022/02/17 00:02:06;;;;;;;0.00;0.00;;;;;;;7.68;78.85;98857.63;6249088;22;20003;-79
2022/02/17 00:04:32;;;;;;;0.00;0.00;;;;;;;7.67;78.43;98860.53;6250113;22;20488;-77
2022/02/17 00:06:57;;;;;;;0.00;0.00;;;;;;;7.66;78.39;98861.59;6277208;22;20003;-78
2022/02/17 00:09:23;;;;;;;0.00;0.00;;;;;;;7.61;78.49;98848.28;6277336;22;20050;-77
2022/02/17 00:11:48;;;;;;;0.63;0.63;;;;;;;7.60;78.65;98847.47;6277136;22;20436;-78
2022/02/17 00:14:14;;;;;;;0.00;0.00;;;;;;;7.59;78.54;98851.22;6249610;22;20011;-79
2022/02/17 00:16:39;;;;;;;0.00;0.00;;;;;;;7.59;78.50;98853.06;6249802;22;20004;-82
2022/02/17 00:19:06;;;;;;;0.00;0.00;;;;;;;7.57;78.59;98849.84;6249601;22;20006;-79
2022/02/17 00:21:31;;;;;;;0.00;0.00;;;;;;;7.54;78.24;98845.84;6249706;22;20436;-78
2022/02/17 00:23:56;;;;;;;0.00;0.00;;;;;;;7.50;77.93;98845.56;6276432;22;20023;-78
2022/02/17 00:26:22;;;;;;;0.00;0.00;;;;;;;7.48;78.45;98842.38;6249338;22;20004;-78
2022/02/17 00:28:48;;;;;;;0.93;0.88;;;;;;;7.45;78.15;98845.56;6276848;22;20057;-78
2022/02/17 00:31:15;;;;;;;0.00;0.00;;;;;;;7.40;77.60;98839.41;6249613;22;20018;-79
2022/02/17 00:33:40;;;;;;;0.35;0.35;;;;;;;7.34;77.12;98839.38;6279218;22;20006;-79
2022/02/17 00:36:06;;;;;;;0.80;0.80;;;;;;;7.30;77.30;98835.66;6278793;22;19999;-79
2022/02/17 00:38:32;;;;;;;0.00;0.00;;;;;;;7.29;77.44;98834.03;6251472;22;20380;-79
2022/02/17 00:40:57;;;;;;;0.00;0.00;;;;;;;7.21;77.08;98830.03;6250068;22;20090;-79
2022/02/17 00:43:23;;;;;;;0.00;0.00;;;;;;;7.18;77.85;98821.78;6276598;22;19999;-79
2022/02/17 00:45:48;;;;;;;0.00;0.00;;;;;;;7.15;77.65;98831.06;6276600;22;20015;-79
2022/02/17 00:48:14;;;;;;;0.00;0.00;;;;;;;7.13;77.81;98825.19;6249544;22;20027;-79
2022/02/17 00:50:39;;;;;;;0.00;0.00;;;;;;;7.11;77.73;98813.22;6249419;22;20003;-79
2022/02/17 00:53:05;;;;;;;0.00;0.00;;;;;;;7.07;77.70;98825.41;6249320;22;20004;-79
2022/02/17 00:55:31;;;;;;;0.22;0.22;;;;;;;7.04;77.27;98827.56;6249418;22;20075;-79
2022/02/17 00:57:56;;;;;;;0.00;0.00;;;;;;;7.01;76.98;98824.59;6249418;22;20000;-79
2022/02/17 01:00:21;;;;;;;0.00;0.00;;;;;;;6.98;77.23;98823.28;6276463;22;19996;-79
2022/02/17 01:02:47;;;;;;;0.35;0.35;;;;;;;6.93;77.46;98815.25;6249564;22;20000;-78
2022/02/17 01:05:12;;;;;;;0.32;0.32;;;;;;;6.93;77.34;98811.78;6249530;22;20004;-80
2022/02/17 01:07:58;;;;;;;0.00;0.00;;;;;;;6.93;77.36;98796.63;6259602;22;19999;-83
2022/02/17 01:10:24;;;;;;;0.00;0.00;;;;;;;6.89;76.91;98793.69;6255952;22;20012;-80
2022/02/17 01:12:49;;;;;;;0.00;0.00;;;;;;;6.86;77.19;98790.75;6249183;22;20000;-81
2022/02/17 01:15:15;;;;;;;0.00;0.00;;;;;;;6.83;77.14;98796.59;6249919;22;20004;-80
2022/02/17 01:17:40;;;;;;;0.00;0.00;;;;;;;6.79;76.92;98788.31;6249689;22;19999;-80
2022/02/17 01:20:06;;;;;;;0.00;0.00;;;;;;;6.73;77.30;98790.13;6250517;22;20006;-82
2022/02/17 01:22:33;;;;;;;0.00;0.00;;;;;;;6.71;77.04;98796.78;6278921;22;20059;-79
2022/02/17 01:24:58;;;;;;;0.00;0.00;;;;;;;6.68;77.51;98792.78;6250207;22;19991;-78
2022/02/17 01:27:24;;;;;;;0.00;0.00;;;;;;;6.64;77.20;98786.38;6249100;22;19995;-79
2022/02/17 01:29:49;;;;;;;0.00;0.00;;;;;;;6.61;77.10;98780.78;6249225;22;20064;-79
2022/02/17 01:32:15;;;;;;;0.00;0.00;;;;;;;6.59;76.65;98783.66;6276414;22;20025;-79
2022/02/17 01:34:40;;;;;;;0.00;0.00;;;;;;;6.50;76.60;98769.28;6249619;22;20110;-79
2022/02/17 01:37:06;;;;;;;0.00;0.00;;;;;;;6.51;76.68;98776.97;6250395;22;20050;-79
2022/02/17 01:39:32;;;;;;;1.23;0.65;;;;;;;6.47;76.55;98785.72;6277546;22;20047;-80
2022/02/17 01:41:58;;;;;;;0.00;0.00;;;;;;;6.45;76.69;98785.97;6250181;22;20035;-78
2022/02/17 01:44:25;;;;;;;0.00;0.00;;;;;;;6.42;76.54;98778.53;6250583;22;20019;-79
2022/02/17 01:46:50;;;;;;;0.00;0.00;;;;;;;6.37;77.02;98781.94;6249456;22;20361;-77
2022/02/17 01:49:16;;;;;;;0.00;0.00;;;;;;;6.31;76.76;98768.88;6276018;22;20004;-78
2022/02/17 01:51:42;;;;;;;0.00;0.00;;;;;;;6.33;76.87;98778.19;6249692;22;19999;-77
2022/02/17 01:54:08;;;;;;;0.00;0.00;;;;;;;6.29;76.97;98781.63;6248726;22;20053;-80
2022/02/17 01:56:45;;;;;;;0.00;0.00;;;;;;;6.25;77.01;98776.81;6254965;22;20010;-82
2022/02/17 02:00:07;;;;;;;0.00;0.00;;;;;;;6.22;77.04;98785.25;6264879;22;19995;-82
2022/02/17 02:02:53;;;;;;;0.00;0.00;;;;;;;6.14;76.73;98761.84;6235215;22;20218;-81
2022/02/17 02:05:18;;;;;;;0.00;0.00;;;;;;;6.14;76.65;98766.34;6250192;22;19998;-80
2022/02/17 02:08:09;;;;;;;0.00;0.00;;;;;;;6.12;76.75;98769.25;6253727;22;20004;-82
2022/02/17 02:10:35;;;;;;;0.00;0.00;;;;;;;6.09;76.74;98775.06;6227018;22;19999;-79
2022/02/17 02:13:01;;;;;;;0.00;0.00;;;;;;;6.04;77.15;98773.19;6248555;22;20019;-78
2022/02/17 02:15:28;;;;;;;0.00;0.00;;;;;;;6.03;77.17;98774.25;6249106;22;20437;-79
2022/02/17 02:17:54;;;;;;;0.10;0.10;;;;;;;6.03;76.94;98765.47;6248678;22;20012;-79
2022/02/17 02:20:20;;;;;;;0.10;0.10;;;;;;;6.02;77.42;98763.88;6248875;22;20007;-80
2022/02/17 02:22:46;;;;;;;0.00;0.00;;;;;;;6.00;77.16;98760.69;6249086;22;20337;-79
2022/02/17 02:25:12;;;;;;;0.00;0.00;;;;;;;5.98;77.27;98752.94;6249660;22;20008;-79
2022/02/17 02:27:38;;;;;;;0.00;0.00;;;;;;;5.99;77.40;98762.50;6248787;22;20318;-78
2022/02/17 02:30:06;;;;;;;0.00;0.00;;;;;;;5.99;77.32;98765.16;6248425;22;20007;-79
2022/02/17 02:32:32;;;;;;;0.00;0.00;;;;;;;5.98;77.90;98760.09;6249246;22;20010;-79
2022/02/17 02:34:57;;;;;;;0.00;0.00;;;;;;;5.96;77.47;98762.19;6249228;22;20051;-79
2022/02/17 02:37:23;;;;;;;0.00;0.00;;;;;;;5.94;77.68;98754.47;6248687;22;20004;-79
2022/02/17 02:39:48;;;;;;;0.00;0.00;;;;;;;5.93;77.82;98759.00;6249403;22;20003;-79
2022/02/17 02:42:13;;;;;;;0.00;0.00;;;;;;;5.92;77.70;98762.69;6248950;22;20426;-79
2022/02/17 02:44:39;;;;;;;0.00;0.00;;;;;;;5.93;77.60;98760.84;6249093;22;20498;-79
2022/02/17 02:47:05;;;;;;;0.00;0.00;;;;;;;5.93;77.77;98760.84;6248625;22;20003;-80
2022/02/17 02:49:31;;;;;;;0.00;0.00;;;;;;;5.95;77.59;98755.28;6249089;22;20000;-80
2022/02/17 02:51:56;;;;;;;0.00;0.00;;;;;;;5.91;78.19;98755.00;6249571;22;20003;-81
2022/02/17 02:54:22;;;;;;;0.00;0.00;;;;;;;5.92;78.20;98754.75;6248785;22;20066;-78
2022/02/17 02:56:47;;;;;;;0.00;0.00;;;;;;;5.90;78.15;98754.19;6248944;22;20006;-79
2022/02/17 02:59:12;;;;;;;0.15;0.15;;;;;;;5.85;78.32;98746.19;6248886;22;20000;-79
2022/02/17 03:01:38;;;;;;;0.00;0.00;;;;;;;5.86;78.76;98747.78;6248951;22;20336;-79
2022/02/17 03:04:04;;;;;;;0.00;0.00;;;;;;;5.81;78.87;98750.41;6250312;22;20003;-79
2022/02/17 03:06:29;;;;;;;0.00;0.00;;;;;;;5.85;78.74;98753.34;6250364;22;20021;-80
2022/02/17 03:08:56;;;;;;;0.00;0.00;;;;;;;5.81;78.92;98742.44;6250581;22;20003;-79
2022/02/17 03:11:21;;;;;;;0.00;0.00;;;;;;;5.81;78.66;98749.59;6249546;22;20004;-79
2022/02/17 03:13:47;;;;;;;0.00;0.00;;;;;;;5.79;78.71;98749.84;6250375;22;20016;-79
2022/02/17 03:16:13;;;;;;;0.00;0.00;;;;;;;5.83;78.83;98748.28;6276949;22;20006;-78
2022/02/17 03:22:16;;;;;;;0.00;0.00;;;;;;;5.79;78.87;98730.47;6205488;22;20047;-80
2022/02/17 03:24:41;;;;;;;0.00;0.00;;;;;;;5.73;79.38;98717.16;6128482;23;20018;-79
2022/02/17 03:27:16;;;;;;;0.00;0.00;;;;;;;5.60;79.65;98712.25;6127353;22;19998;-80
2022/02/17 03:29:41;;;;;;;0.35;0.35;;;;;;;5.52;79.87;98708.22;6133420;23;20001;-81
2022/02/17 03:32:07;;;;;;;0.00;0.00;;;;;;;5.46;79.89;98719.81;6123180;23;20448;-80
2022/02/17 03:34:33;;;;;;;0.00;0.00;;;;;;;5.43;80.29;98723.78;6123751;23;20004;-80
2022/02/17 03:36:58;;;;;;;0.00;0.00;;;;;;;5.43;80.52;98741.53;6124620;22;20076;-80
2022/02/17 03:39:24;;;;;;;0.00;0.00;;;;;;;5.42;80.50;98724.00;6123894;23;20035;-80
2022/02/17 03:41:49;;;;;;;0.30;0.30;;;;;;;5.39;80.90;98725.31;6124640;23;20063;-78
2022/02/17 03:44:15;;;;;;;0.00;0.00;;;;;;;5.34;81.94;98727.91;6124420;23;20011;-81
2022/02/17 03:46:42;;;;;;;0.00;0.00;;;;;;;5.35;81.33;98715.47;6123783;23;20058;-80
2022/02/17 03:49:07;;;;;;;0.00;0.00;;;;;;;5.32;81.17;98715.97;6123810;23;20004;-77
2022/02/17 03:51:33;;;;;;;0.28;0.28;;;;;;;5.33;81.05;98715.69;6124497;23;20005;-79
2022/02/17 03:53:59;;;;;;;0.10;0.10;;;;;;;5.37;81.09;98710.69;6124673;23;20006;-80
2022/02/17 03:56:24;;;;;;;0.00;0.00;;;;;;;5.39;80.66;98705.97;6129251;23;20005;-82
2022/02/17 03:59:15;;;;;;;0.00;0.00;;;;;;;5.45;80.11;98704.94;6130509;23;20012;-82
2022/02/17 04:04:59;;;;;;;0.00;0.00;;;;;;;5.40;80.27;98718.16;6144610;22;20063;-83
2022/02/17 04:07:25;;;;;;;0.00;0.00;;;;;;;5.29;80.38;98710.09;6128267;23;20015;-82
2022/02/17 04:09:50;;;;;;;0.95;0.85;;;;;;;5.29;80.69;98731.31;6125747;23;19993;-81
2022/02/17 04:12:16;;;;;;;0.00;0.00;;;;;;;5.29;80.45;98731.31;6124322;23;20109;-80
2022/02/17 04:14:41;;;;;;;0.00;0.00;;;;;;;5.33;80.55;98722.88;6123990;23;20043;-81
2022/02/17 04:17:06;;;;;;;0.00;0.00;;;;;;;5.36;80.71;98727.66;6126115;23;20766;-81
2022/02/17 04:19:32;;;;;;;0.00;0.00;;;;;;;5.38;80.32;98723.72;6126444;23;20005;-82
2022/02/17 04:28:17;;;;;;;0.00;0.00;;;;;;;5.38;79.29;98723.72;6158753;23;20591;-79
2022/02/17 04:31:15;;;;;;;0.00;0.00;;;;;;;5.28;79.91;98702.41;6131071;23;20057;-81
2022/02/17 04:34:00;;;;;;;0.00;0.00;;;;;;;5.31;79.95;98732.91;6161272;22;20017;-80
2022/02/17 04:37:06;;;;;;;0.00;0.00;;;;;;;5.32;79.49;98742.47;6141002;23;19993;-84
2022/02/17 04:39:32;;;;;;;0.00;0.00;;;;;;;5.24;77.51;98744.50;6153948;23;20008;-80
2022/02/17 04:44:42;;;;;;;0.00;0.00;;;;;;;5.18;77.20;98724.28;6149553;23;20008;-77
2022/02/17 04:47:07;;;;;;;0.00;0.00;;;;;;;5.12;77.17;98715.47;6122771;23;20080;-79
2022/02/17 04:49:33;;;;;;;0.00;0.00;;;;;;;5.04;76.95;98712.47;6124662;23;20001;-82
2022/02/17 04:51:58;;;;;;;0.00;0.00;;;;;;;5.01;76.58;98718.28;6129711;23;20006;-79
2022/02/17 04:54:23;;;;;;;0.00;0.00;;;;;;;4.99;77.55;98715.06;6123629;23;20001;-79
2022/02/17 04:56:49;;;;;;;0.00;0.00;;;;;;;4.96;76.95;98706.56;6124347;23;20044;-79
2022/02/17 04:59:14;;;;;;;0.00;0.00;;;;;;;4.96;76.95;98703.09;6124166;23;20009;-79
2022/02/17 05:01:40;;;;;;;0.00;0.00;;;;;;;4.92;76.68;98702.81;6130508;23;20005;-80
2022/02/17 05:04:05;;;;;;;0.05;0.05;;;;;;;4.93;76.55;98696.47;6134337;23;20100;-81
2022/02/17 05:06:31;;;;;;;0.03;0.03;;;;;;;4.89;75.89;98707.78;6126754;23;20064;-80
2022/02/17 05:08:57;;;;;;;0.00;0.00;;;;;;;4.88;76.21;98714.97;6162513;22;19997;-82
2022/02/17 05:11:23;;;;;;;0.00;0.00;;;;;;;4.82;76.02;98702.66;6117099;23;20496;-80
2022/02/17 05:13:48;;;;;;;0.00;0.00;;;;;;;4.78;75.95;98707.66;6127379;23;19997;-80
2022/02/17 05:16:14;;;;;;;0.00;0.00;;;;;;;4.77;75.88;98714.03;6129638;23;20006;-78
2022/02/17 05:18:39;;;;;;;0.00;0.00;;;;;;;4.72;75.46;98702.56;6123395;23;20001;-79
2022/02/17 05:21:06;;;;;;;0.00;0.00;;;;;;;4.68;75.94;98720.78;6123199;23;20016;-78
2022/02/17 05:23:33;;;;;;;0.00;0.00;;;;;;;4.64;75.68;98720.47;6124249;23;20016;-79
2022/02/17 05:25:58;;;;;;;0.00;0.00;;;;;;;4.63;75.78;98713.56;6123386;23;20457;-78
2022/02/17 05:28:23;;;;;;;0.00;0.00;;;;;;;4.64;76.00;98714.38;6126785;23;20005;-78
2022/02/17 05:30:49;;;;;;;0.10;0.10;;;;;;;4.63;75.90;98712.78;6149487;23;20457;-78
2022/02/17 05:33:15;;;;;;;0.00;0.00;;;;;;;4.61;75.72;98710.38;6125206;23;20422;-78
2022/02/17 07:50:39;;;;;;;0.70;0.70;;;;;;;9.45;67.57;98625.13;5987671;24;20019;-84
2022/02/17 08:01:11;;;;;;;0.98;0.98;;;;;;;9.06;68.11;98622.47;5962664;23;20017;-85
2022/02/17 08:42:36;;;;;;;1.45;1.35;;;;;;;9.81;66.57;98644.59;6245042;23;20047;-86
2022/02/17 08:58:53;;;;;;;0.35;0.35;;;;;;;10.14;68.09;98632.25;6243383;23;20006;-87
2022/02/17 09:01:19;;;;;;;1.35;1.35;;;;;;;10.26;67.73;98634.53;6216103;23;20004;-85
2022/02/17 09:03:44;;;;;;;0.30;0.30;;;;;;;10.37;67.81;98630.69;6216543;23;20071;-86
2022/02/17 09:06:10;;;;;;;0.57;0.57;;;;;;;10.51;67.19;98625.47;6216223;23;19999;-86
2022/02/17 09:08:36;;;;;;;1.25;1.25;;;;;;;10.61;66.81;98632.56;6216866;23;20007;-86
2022/02/17 09:11:04;;;;;;;0.13;0.13;;;;;;;10.68;66.94;98624.19;6216909;23;20359;-85
2022/02/17 09:13:29;;;;;;;6.22;0.95;;;;;;;10.81;66.62;98623.50;6216504;23;20008;-85
2022/02/17 09:15:56;;;;;;;0.95;0.47;;;;;;;10.93;65.89;98619.63;6217001;23;20085;-85
2022/02/17 09:18:21;;;;;;;0.60;0.60;;;;;;;10.99;65.43;98619.25;6206739;23;20014;-86
2022/02/17 09:20:47;;;;;;;0.20;0.20;;;;;;;11.04;65.14;98613.81;6221665;23;20085;-85
2022/02/17 09:23:13;;;;;;;0.10;0.10;;;;;;;11.15;64.92;98627.84;6221412;23;20342;-86
2022/02/17 09:25:38;;;;;;;0.52;0.52;;;;;;;11.17;63.79;98623.00;6221484;23;20419;-87
2022/02/17 09:28:05;;;;;;;3.40;1.60;;;;;;;11.17;63.88;98623.00;6220641;23;20064;-86
2022/02/17 09:30:31;;;;;;;0.65;0.65;;;;;;;11.27;63.69;98623.94;6221409;23;20006;-86
2022/02/17 09:32:57;;;;;;;0.10;0.10;;;;;;;11.34;63.76;98611.00;6221289;23;20029;-85
2022/02/17 09:35:22;;;;;;;0.40;0.40;;;;;;;11.43;63.81;98595.84;6221482;23;20059;-86
2022/02/17 09:37:48;;;;;;;0.10;0.10;;;;;;;11.51;62.74;98594.38;6221133;23;20347;-86
2022/02/17 09:40:13;;;;;;;0.65;0.65;;;;;;;11.59;63.34;98580.31;6093546;23;20423;-86
2022/02/17 09:42:41;;;;;;;0.65;0.65;;;;;;;11.66;62.53;98582.63;6221513;23;20415;-87
2022/02/17 09:45:09;;;;;;;0.75;0.47;;;;;;;11.65;62.30;98586.38;6221482;23;20120;-86
2022/02/17 09:47:40;;;;;;;0.52;0.52;;;;;;;11.70;61.86;98580.94;6221590;23;20009;-86
2022/02/17 09:50:08;;;;;;;0.55;0.55;;;;;;;11.69;62.00;98585.50;6220634;23;20010;-87
2022/02/17 09:52:35;;;;;;;0.35;0.35;;;;;;;11.76;62.28;98571.72;6221479;23;20456;-86
2022/02/17 09:55:01;;;;;;;0.20;0.20;;;;;;;11.82;61.44;98567.09;6221174;22;20006;-88
2022/02/17 09:57:28;;;;;;;0.45;0.45;;;;;;;11.87;61.92;98544.75;6221215;23;20017;-87
2022/02/17 09:59:53;;;;;;;0.40;0.40;;;;;;;11.93;61.22;98538.22;6221497;23;20009;-86
2022/02/17 10:02:24;;;;;;;0.75;0.75;;;;;;;12.04;61.28;98528.91;6220744;23;20010;-87
2022/02/17 10:04:56;;;;;;;0.17;0.17;;;;;;;12.12;61.41;98522.03;6221415;23;20088;-86
2022/02/17 10:07:37;;;;;;;0.10;0.10;;;;;;;12.17;60.66;98500.53;6220956;23;20005;-86
2022/02/17 10:10:05;;;;;;;0.22;0.22;;;;;;;12.26;59.74;98506.75;6220541;23;20037;-87
2022/02/17 10:12:51;;;;;;;0.10;0.10;;;;;;;12.33;59.56;98501.78;6221398;23;20014;-86
2022/02/17 10:15:25;;;;;;;1.30;1.13;;;;;;;12.41;59.08;98491.44;6220531;23;20327;-87
2022/02/17 10:18:17;;;;;;;0.00;0.00;;;;;;;12.49;59.42;98490.72;6241175;23;20333;-86
2022/02/17 10:20:57;;;;;;;0.25;0.25;;;;;;;12.61;59.37;98482.94;6216547;23;20007;-86
2022/02/17 10:23:29;;;;;;;0.20;0.20;;;;;;;12.69;59.28;98476.03;6214918;23;20087;-87
2022/02/17 10:26:15;;;;;;;1.45;1.23;;;;;;;12.69;58.46;98470.69;6216216;23;20004;-87
2022/02/17 10:29:06;;;;;;;0.43;0.43;;;;;;;12.75;58.39;98461.41;6216256;23;20035;-86
2022/02/17 10:31:35;;;;;;;1.05;1.05;;;;;;;12.82;58.21;98451.06;6206397;23;20004;-86
2022/02/17 10:34:02;;;;;;;0.22;0.22;;;;;;;12.85;58.08;98436.22;6215923;23;20011;-86
2022/02/17 10:36:46;;;;;;;0.65;0.65;;;;;;;12.99;58.95;98436.19;6215751;23;20011;-86
2022/02/17 10:39:42;;;;;;;0.38;0.38;;;;;;;13.04;58.73;98430.66;6215951;23;20004;-85
2022/02/17 10:42:06;;;;;;;0.40;0.40;;;;;;;13.18;59.27;98427.13;6241522;23;20091;-86
2022/02/17 10:44:34;;;;;;;0.00;0.00;;;;;;;13.25;57.86;98420.19;6215949;23;19996;-86
2022/02/17 10:47:26;;;;;;;1.02;0.93;;;;;;;13.29;57.66;98402.38;6215887;23;19996;-86
2022/02/17 10:49:53;;;;;;;0.00;0.00;;;;;;;13.35;57.47;98396.88;6216329;23;20008;-86
2022/02/17 10:52:36;;;;;;;0.03;0.03;;;;;;;13.36;57.61;98388.50;6215046;23;20394;-86
2022/02/17 10:55:16;;;;;;;1.67;1.55;;;;;;;13.43;57.78;98383.50;6224239;23;20064;-86
2022/02/17 10:57:42;;;;;;;0.35;0.35;;;;;;;13.50;56.94;98364.25;6216150;23;20311;-86
2022/02/17 11:00:13;;;;;;;2.22;2.13;;;;;;;13.49;56.79;98362.66;6215881;23;20388;-86
2022/02/17 11:02:39;;;;;;;2.05;1.17;;;;;;;13.53;56.44;98346.72;6216188;23;20082;-86
2022/02/17 11:05:09;;;;;;;0.70;0.70;;;;;;;13.61;57.30;98346.72;6190482;23;20004;-86
2022/02/17 11:07:40;;;;;;;0.70;0.70;;;;;;;13.68;57.09;98343.56;6215716;23;20000;-85
2022/02/17 11:10:08;;;;;;;0.38;0.38;;;;;;;13.74;57.11;98336.16;6240731;23;20022;-86
2022/02/17 11:12:34;;;;;;;0.00;0.00;;;;;;;13.84;56.51;98330.50;6215901;23;19996;-87
2022/02/17 11:15:04;;;;;;;0.10;0.10;;;;;;;13.95;56.47;98322.88;6216067;23;20000;-87
2022/02/17 11:17:38;;;;;;;0.10;0.10;;;;;;;14.03;56.21;98311.34;6220388;22;20023;-87
2022/02/17 11:20:17;;;;;;;0.38;0.38;;;;;;;14.07;55.90;98300.75;6246373;22;20031;-87
2022/02/17 11:22:43;;;;;;;0.10;0.10;;;;;;;14.15;55.94;98305.34;6272626;22;20570;-86
2022/02/17 11:25:11;;;;;;;0.35;0.35;;;;;;;14.17;55.97;98299.63;6273146;22;20007;-87
2022/02/17 11:28:10;;;;;;;1.00;0.98;;;;;;;14.20;55.88;98286.34;6273099;22;20004;-87
2022/02/17 11:30:38;;;;;;;0.03;0.03;;;;;;;14.26;55.69;98292.38;6209975;23;20009;-87
2022/02/17 11:33:23;;;;;;;13.70;2.30;;;;;;;14.32;55.68;98284.91;6228791;22;20033;-86
2022/02/17 11:35:57;;;;;;;1.50;1.40;;;;;;;14.34;55.56;98274.63;6248163;22;20031;-87
2022/02/17 11:38:31;;;;;;;0.22;0.22;;;;;;;14.40;55.56;98268.75;6273578;22;20095;-86
2022/02/17 11:41:33;;;;;;;0.63;0.63;;;;;;;14.51;55.62;98266.53;6248165;22;20486;-86
2022/02/17 11:44:16;;;;;;;0.10;0.10;;;;;;;14.61;55.15;98251.94;6215923;22;20322;-86
2022/02/17 11:46:41;;;;;;;0.73;0.73;;;;;;;14.65;55.03;98246.69;6248297;22;20031;-86
2022/02/17 11:49:11;;;;;;;0.52;0.52;;;;;;;14.73;54.82;98245.88;6247983;22;20326;-86
2022/02/17 11:51:38;;;;;;;0.20;0.20;;;;;;;14.82;54.99;98241.25;6273839;22;20009;-87
2022/02/17 11:54:15;;;;;;;0.20;0.20;;;;;;;14.86;55.09;98228.72;6247965;22;20369;-86
2022/02/17 11:56:45;;;;;;;0.70;0.68;;;;;;;14.93;55.00;98222.03;6273694;22;20050;-86
2022/02/17 11:59:30;;;;;;;1.58;1.50;;;;;;;15.00;54.38;98219.63;6247704;22;20080;-86
2022/02/17 12:02:00;;;;;;;0.45;0.45;;;;;;;15.11;54.66;98226.25;6248026;22;20004;-86
2022/02/17 12:04:31;;;;;;;0.90;0.90;;;;;;;15.18;54.47;98223.81;6247224;22;20482;-86
2022/02/17 12:07:00;;;;;;;0.65;0.65;;;;;;;15.27;54.54;98220.25;6273408;22;20325;-87
2022/02/17 12:09:41;;;;;;;0.10;0.10;;;;;;;15.38;54.76;98221.47;6247263;22;20090;-86
2022/02/17 12:12:06;;;;;;;0.28;0.28;;;;;;;15.42;54.07;98208.91;6247814;22;20409;-87
2022/02/17 12:14:32;;;;;;;1.45;1.35;;;;;;;15.46;53.79;98207.13;6247939;22;20077;-86
2022/02/17 12:17:02;;;;;;;0.80;0.77;;;;;;;15.51;53.76;98193.47;6247800;22;20003;-87
2022/02/17 12:19:37;;;;;;;0.70;0.70;;;;;;;15.58;54.06;98195.63;6247348;22;20004;-86
2022/02/17 12:22:06;;;;;;;1.05;0.90;;;;;;;15.61;53.15;98192.28;6273347;22;20007;-87
2022/02/17 12:24:32;;;;;;;2.75;1.83;;;;;;;15.65;53.43;98195.09;6247834;22;20000;-87
2022/02/17 12:26:58;;;;;;;1.45;1.35;;;;;;;15.66;52.81;98183.19;6247821;22;20007;-86
2022/02/17 12:29:36;;;;;;;0.75;0.75;;;;;;;15.74;53.56;98193.09;6247424;22;20057;-86
2022/02/17 12:32:04;;;;;;;1.65;1.55;;;;;;;15.79;52.71;98182.13;6247640;22;20448;-85
2022/02/17 12:34:30;;;;;;;2.17;2.05;;;;;;;15.80;53.00;98172.91;6247073;22;20050;-86
2022/02/17 12:36:56;;;;;;;0.90;0.90;;;;;;;15.86;53.66;98172.75;6247744;22;20007;-86
2022/02/17 12:39:30;;;;;;;1.00;1.00;;;;;;;15.91;53.04;98177.94;6247415;22;20322;-86
2022/02/17 12:41:58;;;;;;;0.75;0.75;;;;;;;15.96;52.36;98175.78;6247619;22;20011;-86
2022/02/17 12:44:30;;;;;;;1.00;0.63;;;;;;;16.03;51.86;98167.16;6247461;22;20339;-85
2022/02/17 12:46:57;;;;;;;1.35;1.33;;;;;;;16.07;52.22;98170.00;6273185;22;20321;-86
2022/02/17 12:49:24;;;;;;;0.43;0.43;;;;;;;16.09;52.27;98162.38;6247222;22;19999;-84
2022/02/17 12:51:49;;;;;;;0.85;0.85;;;;;;;16.08;52.04;98166.97;6247608;22;20007;-85
2022/02/17 12:54:15;;;;;;;2.50;1.10;;;;;;;16.11;51.66;98173.59;6272597;22;20006;-85
2022/02/17 12:56:42;;;;;;;1.27;1.17;;;;;;;16.05;51.55;98164.94;6247572;22;20011;-87
2022/02/17 12:59:13;;;;;;;3.30;3.03;;;;;;;16.05;51.87;98167.63;6272768;22;20003;-85
2022/02/17 13:01:44;;;;;;;0.40;0.40;;;;;;;16.07;52.02;98164.59;6273023;22;20073;-85
2022/02/17 13:04:10;;;;;;;1.95;0.90;;;;;;;16.11;51.66;98165.50;6272637;22;20006;-84
2022/02/17 13:06:36;;;;;;;0.30;0.30;;;;;;;16.18;52.01;98173.81;6247459;22;20008;-86
2022/02/17 13:09:23;;;;;;;0.35;0.35;;;;;;;16.14;51.08;98176.41;6247203;22;20409;-85
2022/02/17 13:11:57;;;;;;;1.38;1.30;;;;;;;16.18;50.98;98176.53;6247541;22;20336;-85
2022/02/17 13:14:30;;;;;;;1.15;1.15;;;;;;;16.14;50.69;98181.81;6247087;22;20076;-84
2022/02/17 13:17:06;;;;;;;0.95;0.95;;;;;;;16.16;49.95;98186.84;6247351;22;20007;-84
2022/02/17 13:19:38;;;;;;;1.88;1.73;;;;;;;16.11;49.88;98177.09;6272965;22;20102;-84
2022/02/17 13:22:23;;;;;;;1.50;1.50;;;;;;;16.16;49.37;98174.16;6247227;22;20095;-85
2022/02/17 13:25:03;;;;;;;0.47;0.47;;;;;;;16.11;49.74;98171.69;6247325;22;20004;-85
2022/02/17 13:27:30;;;;;;;1.20;1.10;;;;;;;16.17;49.82;98175.75;6246657;22;20050;-85
2022/02/17 13:29:58;;;;;;;0.25;0.25;;;;;;;16.22;49.84;98172.06;6247264;22;20003;-85
2022/02/17 13:32:30;;;;;;;0.52;0.52;;;;;;;16.24;48.80;98169.00;6246811;22;20085;-85
2022/02/17 13:35:15;;;;;;;0.10;0.10;;;;;;;16.25;49.52;98162.50;6272803;22;20061;-84
2022/02/17 13:37:48;;;;;;;0.85;0.85;;;;;;;16.27;49.59;98154.84;6247075;22;19999;-84
2022/02/17 13:40:15;;;;;;;0.20;0.20;;;;;;;16.30;49.13;98167.66;6246809;22;20374;-84
2022/02/17 13:42:54;;;;;;;0.00;0.00;;;;;;;16.29;49.32;98161.47;6247007;22;20007;-86
2022/02/17 13:45:22;;;;;;;0.08;0.08;;;;;;;16.32;49.05;98162.75;6246615;22;20015;-87
2022/02/17 13:47:50;;;;;;;0.35;0.35;;;;;;;16.28;48.96;98149.13;6246953;22;20006;-86
2022/02/17 13:50:20;;;;;;;0.10;0.10;;;;;;;16.27;48.10;98161.03;6246751;22;20362;-86
2022/02/17 13:53:06;;;;;;;0.40;0.40;;;;;;;16.26;48.35;98150.56;6247026;22;20317;-86
2022/02/17 13:55:37;;;;;;;0.00;0.00;;;;;;;16.26;48.71;98145.97;6246875;22;19995;-86
2022/02/17 13:58:04;;;;;;;1.10;0.65;;;;;;;16.26;47.83;98143.28;6272595;22;20518;-85
2022/02/17 14:00:31;;;;;;;0.10;0.10;;;;;;;16.25;48.71;98122.81;6272157;22;20000;-86
2022/02/17 14:03:27;;;;;;;0.10;0.10;;;;;;;16.29;48.57;98131.03;6246872;22;20433;-85
2022/02/17 14:05:56;;;;;;;0.20;0.20;;;;;;;16.33;48.02;98119.22;6272374;22;20011;-85
2022/02/17 14:08:22;;;;;;;0.22;0.22;;;;;;;16.37;48.37;98118.53;6246517;22;20384;-85
2022/02/17 14:10:49;;;;;;;0.22;0.22;;;;;;;16.38;48.41;98104.72;6246842;22;20061;-85
2022/02/17 14:13:15;;;;;;;0.10;0.10;;;;;;;16.41;47.75;98109.44;6246619;22;20417;-86
2022/02/17 14:15:40;;;;;;;0.90;0.90;;;;;;;16.49;47.00;98115.88;6246909;22;20078;-85
2022/02/17 14:18:06;;;;;;;0.25;0.25;;;;;;;16.45;47.17;98102.25;6246057;22;20062;-85
2022/02/17 14:20:31;;;;;;;0.00;0.00;;;;;;;16.43;46.62;98095.59;6246859;22;20000;-85
2022/02/17 14:22:57;;;;;;;1.05;0.98;;;;;;;16.41;47.25;98090.53;6246636;22;20010;-85
2022/02/17 14:25:25;;;;;;;0.20;0.20;;;;;;;16.45;47.59;98090.66;6246531;22;20014;-85
2022/02/17 14:27:51;;;;;;;0.15;0.15;;;;;;;16.47;47.12;98088.41;6246774;22;20007;-85
2022/02/17 14:30:17;;;;;;;0.35;0.35;;;;;;;16.52;46.86;98079.31;6246347;22;20331;-85
2022/02/17 14:32:42;;;;;;;0.50;0.50;;;;;;;16.55;46.82;98074.03;6246459;22;20011;-85
2022/02/17 14:35:10;;;;;;;0.17;0.17;;;;;;;16.56;46.88;98072.09;6246403;22;20082;-85
2022/02/17 14:37:41;;;;;;;0.20;0.20;;;;;;;16.63;47.27;98064.22;6247273;22;20090;-86
2022/02/17 14:40:08;;;;;;;0.10;0.10;;;;;;;16.69;47.18;98059.38;6246806;22;20068;-86
2022/02/17 14:42:34;;;;;;;0.00;0.00;;;;;;;16.70;46.71;98059.03;6272121;22;20010;-84
2022/02/17 14:45:00;;;;;;;0.10;0.10;;;;;;;16.69;46.46;98057.47;6272198;22;20090;-83
2022/02/17 14:47:27;;;;;;;0.03;0.03;;;;;;;16.75;46.71;98060.72;6246305;22;20003;-85
2022/02/17 14:49:53;;;;;;;0.00;0.00;;;;;;;16.77;46.86;98053.03;6246690;22;20019;-85
2022/02/17 14:52:22;;;;;;;0.10;0.10;;;;;;;16.78;46.47;98049.22;6246412;22;20581;-84
2022/02/17 14:54:49;;;;;;;0.00;0.00;;;;;;;16.76;46.64;98043.38;6246502;22;20046;-84
2022/02/17 14:57:16;;;;;;;0.00;0.00;;;;;;;16.77;46.38;98031.44;6246553;22;20050;-84
2022/02/17 14:59:41;;;;;;;0.08;0.08;;;;;;;16.79;46.19;98029.19;6273957;22;20002;-84
2022/02/17 15:02:08;;;;;;;0.05;0.05;;;;;;;16.79;46.42;98023.78;6248102;22;20004;-86
2022/02/17 15:04:34;;;;;;;0.00;0.00;;;;;;;16.79;46.33;98021.88;6248611;22;20082;-84
2022/02/17 15:07:00;;;;;;;0.00;0.00;;;;;;;16.77;46.35;98015.25;6248033;22;20443;-86
2022/02/17 15:09:25;;;;;;;0.03;0.03;;;;;;;16.81;46.39;98008.06;6248274;22;20314;-85
2022/02/17 15:11:51;;;;;;;0.10;0.10;;;;;;;16.83;46.42;98010.41;6248401;22;20086;-86
2022/02/17 15:14:16;;;;;;;0.10;0.10;;;;;;;16.80;46.48;98009.94;6248156;22;20095;-85
2022/02/17 15:16:42;;;;;;;0.00;0.00;;;;;;;16.80;46.44;98003.78;6248754;22;20012;-85
2022/02/17 15:19:08;;;;;;;0.10;0.10;;;;;;;16.75;46.66;98006.72;6273464;22;20354;-85